Time;durP1;ratioP1;P1;durP2;ratioP2;P2;SDS_P1;SDS_P2;PMS_P1;PMS_P2;Temp;Humidity;BMP_temperature;BMP_pressure;BME280_temperature;BME280_humidity;BME280_pressure;Samples;Min_cycle;Max_cycle;Signal;HPM_P1;HPM_P2
2022/04/02 00:01:18;;;;;;;6.97;1.30;;;11.30;99.90;;;;;;6266980;23;20164;-91
2022/04/02 00:03:50;;;;;;;3.07;1.10;;;11.20;99.90;;;;;;6267981;23;20163;-91
2022/04/02 00:06:21;;;;;;;3.17;1.20;;;11.10;99.90;;;;;;6265823;23;20171;-92
2022/04/02 00:08:54;;;;;;;2.97;1.10;;;10.70;99.90;;;;;;6240339;23;20186;-91
2022/04/02 00:11:28;;;;;;;2.10;1.10;;;10.80;99.90;;;;;;6267339;23;20186;-91
2022/04/02 00:14:08;;;;;;;1.67;0.90;;;10.90;99.90;;;;;;6267380;23;20171;-92
2022/04/02 00:16:42;;;;;;;2.47;1.10;;;11.00;99.90;;;;;;6266427;23;20310;-92
2022/04/02 00:19:16;;;;;;;2.80;1.03;;;11.10;99.90;;;;;;6267207;23;20234;-91
2022/04/02 00:21:57;;;;;;;1.63;0.80;;;11.20;99.90;;;;;;6242252;23;20247;-91
2022/04/02 00:24:41;;;;;;;1.63;0.90;;;11.30;99.90;;;;;;6267130;23;20206;-92
2022/04/02 00:27:14;;;;;;;2.70;1.50;;;11.40;99.90;;;;;;6245385;23;20175;-92
2022/04/02 00:29:58;;;;;;;1.80;1.20;;;11.20;99.90;;;;;;6269977;22;20178;-92
2022/04/02 00:32:35;;;;;;;2.37;0.93;;;11.40;99.90;;;;;;6271684;22;20154;-91
2022/04/02 00:35:11;;;;;;;1.70;0.80;;;11.40;99.90;;;;;;6271142;23;20247;-91
2022/04/02 00:37:43;;;;;;;0.97;0.60;;;11.40;99.90;;;;;;6243471;23;20179;-92
2022/04/02 00:40:18;;;;;;;2.17;0.70;;;11.30;99.90;;;;;;6218906;23;20214;-92
2022/04/02 00:42:52;;;;;;;1.93;1.00;;;11.20;99.90;;;;;;6265383;23;20183;-92
2022/04/02 00:45:34;;;;;;;2.03;0.93;;;11.00;99.90;;;;;;6265677;23;20179;-92
2022/04/02 00:48:16;;;;;;;3.10;1.03;;;10.90;99.90;;;;;;6266019;23;20188;-91
2022/04/02 00:53:51;;;;;;;2.13;0.80;;;10.80;99.90;;;;;;6265391;23;20175;-92
2022/04/02 00:56:34;;;;;;;2.63;1.03;;;10.80;99.90;;;;;;6266523;23;20203;-92
2022/04/02 00:59:15;;;;;;;0.90;0.87;;;10.80;99.90;;;;;;6266528;23;20211;-91
2022/04/02 01:04:34;;;;;;;2.33;1.27;;;10.70;99.90;;;;;;6259539;23;20206;-90
2022/04/02 01:10:06;;;;;;;3.00;0.70;;;10.50;99.90;;;;;;6269959;23;20170;-91
2022/04/02 01:12:39;;;;;;;1.43;0.87;;;10.60;99.90;;;;;;6272408;22;20163;-91
2022/04/02 01:20:45;;;;;;;0.90;0.70;;;10.70;99.90;;;;;;6297826;22;20281;-91
2022/04/02 01:23:19;;;;;;;1.30;0.80;;;10.80;99.90;;;;;;6303744;22;20194;-92
2022/04/02 01:25:51;;;;;;;1.90;0.90;;;10.60;99.90;;;;;;6303053;22;20172;-90
2022/04/02 01:28:22;;;;;;;1.80;0.87;;;10.50;99.90;;;;;;6275754;22;20186;-90
2022/04/02 01:30:54;;;;;;;0.50;0.50;;;10.40;99.90;;;;;;6276640;22;20159;-92
2022/04/02 01:33:26;;;;;;;2.17;0.53;;;10.40;99.90;;;;;;6276915;22;20173;-91
2022/04/02 01:36:03;;;;;;;1.50;0.80;;;10.30;99.90;;;;;;6301891;22;20194;-93
2022/04/02 01:38:46;;;;;;;3.90;0.87;;;10.30;99.90;;;;;;6301182;22;20167;-92
2022/04/02 01:41:20;;;;;;;2.33;0.80;;;10.30;99.90;;;;;;6301686;22;20189;-92
2022/04/02 01:43:52;;;;;;;2.10;0.80;;;10.40;99.90;;;;;;6273715;22;20175;-92
2022/04/02 01:46:30;;;;;;;3.50;1.47;;;10.40;99.90;;;;;;6300232;22;20175;-91
2022/04/02 01:49:02;;;;;;;1.27;0.80;;;10.20;99.90;;;;;;6297525;22;20186;-92
2022/04/02 01:51:40;;;;;;;2.53;0.90;;;10.10;99.90;;;;;;6299192;22;20230;-91
2022/04/02 01:54:30;;;;;;;2.27;0.80;;;10.20;99.90;;;;;;6296780;22;20171;-92
2022/04/02 01:57:07;;;;;;;3.77;1.00;;;10.10;99.90;;;;;;6293287;22;20206;-92
2022/04/02 01:59:44;;;;;;;3.07;1.07;;;10.20;99.90;;;;;;6295794;22;20175;-91
2022/04/02 02:02:20;;;;;;;1.43;0.93;;;10.10;99.90;;;;;;6297648;22;20167;-92
2022/04/02 02:04:56;;;;;;;1.30;0.97;;;10.10;99.90;;;;;;6301776;22;20174;-90
2022/04/02 02:07:30;;;;;;;3.60;1.00;;;10.10;99.90;;;;;;6298229;22;20182;-91
2022/04/02 02:10:05;;;;;;;1.97;0.90;;;10.10;99.90;;;;;;6270217;22;20230;-90
2022/04/02 02:12:44;;;;;;;2.37;0.90;;;10.20;99.90;;;;;;6298682;22;20171;-91
2022/04/02 02:18:07;;;;;;;1.10;0.60;;;10.00;99.90;;;;;;6322961;22;20200;-91
2022/04/02 02:23:33;;;;;;;3.10;1.00;;;10.00;99.90;;;;;;6336131;22;20166;-91
2022/04/02 02:26:12;;;;;;;1.23;0.90;;;9.90;99.90;;;;;;6333919;22;20209;-91
2022/04/02 02:28:43;;;;;;;1.27;1.07;;;9.90;99.90;;;;;;6333055;22;20201;-92
2022/04/02 02:31:17;;;;;;;1.30;0.87;;;9.90;99.90;;;;;;6327328;22;20189;-92
2022/04/02 02:39:26;;;;;;;2.23;0.90;;;9.80;99.90;;;;;;6328216;22;20166;-90
2022/04/02 02:42:04;;;;;;;2.73;0.90;;;9.80;99.90;;;;;;6333563;22;20165;-90
2022/04/02 02:44:37;;;;;;;2.20;0.90;;;9.70;99.90;;;;;;6335603;22;20188;-90
2022/04/02 02:47:11;;;;;;;1.00;0.80;;;9.70;99.90;;;;;;6327037;22;20178;-91
2022/04/02 02:49:43;;;;;;;1.40;0.90;;;9.70;99.90;;;;;;6316706;22;20171;-91
2022/04/02 02:52:16;;;;;;;2.33;0.93;;;9.70;99.90;;;;;;6329217;22;20189;-91
2022/04/02 02:54:49;;;;;;;1.50;0.83;;;9.60;99.90;;;;;;6329071;22;20194;-92
2022/04/02 02:57:46;;;;;;;1.20;0.87;;;9.60;99.90;;;;;;6327959;22;20219;-91
2022/04/02 03:00:19;;;;;;;1.37;0.70;;;9.60;99.90;;;;;;6321377;22;20178;-92
2022/04/02 03:02:53;;;;;;;2.00;1.13;;;9.60;99.90;;;;;;6327301;22;20193;-91
2022/04/02 03:05:25;;;;;;;2.03;1.00;;;9.50;99.90;;;;;;6301774;22;20185;-91
2022/04/02 03:07:57;;;;;;;1.83;1.03;;;9.40;99.90;;;;;;6328570;22;20560;-91
2022/04/02 03:10:32;;;;;;;5.03;1.30;;;9.40;99.90;;;;;;6331344;22;20162;-92
2022/04/02 03:13:07;;;;;;;3.90;1.10;;;9.40;99.90;;;;;;6329203;22;20171;-89
2022/04/02 03:18:25;;;;;;;2.83;1.20;;;9.20;99.90;;;;;;6329186;22;20196;-91
2022/04/02 03:20:57;;;;;;;2.40;1.07;;;9.10;99.90;;;;;;6302723;22;20173;-91
2022/04/02 03:23:32;;;;;;;3.50;1.07;;;9.00;99.90;;;;;;6328641;22;20189;-88
2022/04/02 03:26:21;;;;;;;5.03;1.20;;;9.00;99.90;;;;;;6324875;22;20178;-91
2022/04/02 03:29:13;;;;;;;1.63;1.20;;;8.90;99.90;;;;;;6304595;22;20177;-91
2022/04/02 03:31:46;;;;;;;2.37;1.17;;;8.80;99.90;;;;;;6329455;22;20178;-91
2022/04/02 03:34:17;;;;;;;2.27;1.10;;;8.80;99.90;;;;;;6274672;22;20198;-90
2022/04/02 03:36:48;;;;;;;1.47;1.20;;;8.70;99.90;;;;;;6293341;22;20201;-90
2022/04/02 03:39:24;;;;;;;1.37;1.03;;;8.70;99.90;;;;;;6267384;22;20182;-90
2022/04/02 03:41:56;;;;;;;4.20;1.60;;;8.70;99.90;;;;;;6297970;22;20174;-91
2022/04/02 03:44:43;;;;;;;3.03;1.50;;;8.70;99.90;;;;;;6296445;22;20166;-90
2022/04/02 03:53:00;;;;;;;3.67;1.37;;;8.60;99.90;;;;;;6294202;22;20238;-91
2022/04/02 03:55:45;;;;;;;2.70;1.30;;;8.60;99.90;;;;;;6292241;22;20186;-91
2022/04/02 04:01:22;;;;;;;2.53;1.50;;;8.40;99.90;;;;;;6300529;22;20178;-91
2022/04/02 04:03:54;;;;;;;4.00;1.43;;;8.30;99.90;;;;;;6283468;22;20179;-90
2022/04/02 04:06:25;;;;;;;3.20;1.60;;;8.30;99.90;;;;;;6289707;22;20191;-92
2022/04/02 04:08:58;;;;;;;2.50;1.53;;;8.30;99.90;;;;;;6281719;22;20175;-91
2022/04/02 04:11:30;;;;;;;3.10;1.60;;;8.30;99.90;;;;;;6290631;22;20181;-91
2022/04/02 04:14:02;;;;;;;3.87;1.53;;;8.30;99.90;;;;;;6269957;22;20162;-91
2022/04/02 04:16:36;;;;;;;3.93;1.87;;;8.30;99.90;;;;;;6286139;22;20190;-91
2022/04/02 04:19:18;;;;;;;1.77;1.17;;;8.30;99.90;;;;;;6282601;22;20270;-91
2022/04/02 04:21:51;;;;;;;5.43;1.50;;;8.30;99.90;;;;;;6273507;22;20569;-91
2022/04/02 04:29:54;;;;;;;5.73;1.60;;;8.20;99.90;;;;;;6297722;22;20266;-90
2022/04/02 04:32:41;;;;;;;3.00;1.53;;;8.20;99.90;;;;;;6324528;22;20208;-91
2022/04/02 04:35:12;;;;;;;2.47;1.63;;;8.20;99.90;;;;;;6312215;22;20550;-91
2022/04/02 04:37:44;;;;;;;2.47;1.70;;;8.20;99.90;;;;;;6292906;22;20617;-91
2022/04/02 04:40:15;;;;;;;2.47;1.70;;;8.10;99.90;;;;;;6319656;22;20186;-90
2022/04/02 04:42:46;;;;;;;4.53;1.73;;;8.10;99.90;;;;;;6312829;22;20181;-91
2022/04/02 04:45:18;;;;;;;3.50;1.80;;;8.10;99.90;;;;;;6312263;22;20231;-90
2022/04/02 04:47:51;;;;;;;3.40;1.90;;;8.10;99.90;;;;;;6318038;22;20196;-90
2022/04/02 04:50:23;;;;;;;3.00;2.00;;;8.10;99.90;;;;;;6319284;22;20174;-91
2022/04/02 04:52:54;;;;;;;2.50;1.70;;;8.00;99.90;;;;;;6292370;22;20227;-90
2022/04/02 04:55:25;;;;;;;3.37;1.73;;;8.00;99.90;;;;;;6319538;22;20182;-90
2022/04/02 04:57:56;;;;;;;4.40;2.13;;;7.90;99.90;;;;;;6329062;22;20207;-91
2022/04/02 05:00:28;;;;;;;3.20;2.33;;;7.90;99.90;;;;;;6325870;22;20176;-91
2022/04/02 05:03:01;;;;;;;4.73;2.93;;;7.80;99.90;;;;;;6313060;22;20587;-89
2022/04/02 05:05:34;;;;;;;3.10;2.37;;;7.80;99.90;;;;;;6312269;22;20178;-90
2022/04/02 05:08:07;;;;;;;4.53;2.00;;;7.70;99.90;;;;;;6310860;22;20211;-91
2022/04/02 05:10:42;;;;;;;4.20;2.20;;;7.70;99.90;;;;;;6311823;22;20209;-92
2022/04/02 05:13:15;;;;;;;4.10;2.60;;;7.80;99.90;;;;;;6310928;22;20808;-91
2022/04/02 05:15:48;;;;;;;2.60;1.93;;;7.70;99.90;;;;;;6311271;22;20233;-91
2022/04/02 05:18:21;;;;;;;4.97;2.40;;;7.80;99.90;;;;;;6311425;22;20206;-92
2022/04/02 05:20:53;;;;;;;4.10;2.50;;;7.70;99.90;;;;;;6319898;22;20176;-90
2022/04/02 05:23:24;;;;;;;4.63;2.43;;;7.70;99.90;;;;;;6313531;22;20178;-90
2022/04/02 05:25:55;;;;;;;8.17;2.90;;;7.70;99.90;;;;;;6295768;22;20205;-89
2022/04/02 05:28:27;;;;;;;5.23;3.00;;;7.70;99.90;;;;;;6325573;22;20204;-90
2022/04/02 05:31:06;;;;;;;7.80;3.33;;;7.70;99.90;;;;;;6324686;22;20275;-90
2022/04/02 05:33:42;;;;;;;9.23;3.60;;;7.70;99.90;;;;;;6329312;22;20177;-91
2022/04/02 05:36:16;;;;;;;5.73;2.90;;;7.70;99.90;;;;;;6327440;22;20628;-88
2022/04/02 05:38:50;;;;;;;6.67;3.40;;;7.70;99.90;;;;;;6327455;22;20209;-90
2022/04/02 05:41:22;;;;;;;6.90;3.30;;;7.70;99.90;;;;;;6311973;22;20176;-90
2022/04/02 05:43:53;;;;;;;6.17;3.80;;;7.70;99.90;;;;;;6310373;22;20347;-90
2022/04/02 05:46:26;;;;;;;7.60;4.90;;;7.70;99.90;;;;;;6298045;22;20188;-91
2022/04/02 05:49:01;;;;;;;6.53;4.10;;;7.60;99.90;;;;;;6318342;22;20176;-90
2022/04/02 05:51:33;;;;;;;6.17;3.33;;;7.60;99.90;;;;;;6327636;22;20174;-90
2022/04/02 05:54:05;;;;;;;3.93;3.53;;;7.60;99.90;;;;;;6329510;22;20178;-90
2022/04/02 05:56:48;;;;;;;5.87;3.77;;;7.60;99.90;;;;;;6305369;22;20221;-90
2022/04/02 05:59:36;;;;;;;6.00;3.70;;;7.50;99.90;;;;;;6326174;22;20179;-90
2022/04/02 06:02:09;;;;;;;5.13;3.60;;;7.60;99.90;;;;;;6327881;22;20506;-90
2022/04/02 06:04:43;;;;;;;4.73;3.27;;;7.50;99.90;;;;;;6304232;22;20186;-90
2022/04/02 06:07:15;;;;;;;6.07;3.60;;;7.50;99.90;;;;;;6303131;22;20236;-91
2022/04/02 06:09:47;;;;;;;5.73;3.37;;;7.50;99.90;;;;;;6288827;22;20201;-90
2022/04/02 06:12:19;;;;;;;6.33;3.50;;;7.50;99.90;;;;;;6298838;22;20182;-91
2022/04/02 06:14:54;;;;;;;8.47;4.93;;;7.50;99.90;;;;;;6299440;22;20171;-89
2022/04/02 06:17:26;;;;;;;6.80;4.53;;;7.50;99.90;;;;;;6302261;22;20175;-90
2022/04/02 06:20:10;;;;;;;10.37;4.60;;;7.50;99.90;;;;;;6305603;22;20206;-91
2022/04/02 06:22:42;;;;;;;7.17;4.23;;;7.50;99.90;;;;;;6305501;22;20182;-89
2022/04/02 06:25:18;;;;;;;7.30;4.83;;;7.50;99.90;;;;;;6305477;22;20186;-89
2022/04/02 06:28:06;;;;;;;8.17;4.57;;;7.50;99.90;;;;;;6302883;22;20199;-90
2022/04/02 06:30:38;;;;;;;7.93;4.13;;;7.50;99.90;;;;;;6297033;22;20174;-90
2022/04/02 06:33:11;;;;;;;5.17;3.30;;;7.40;99.90;;;;;;6271862;22;20198;-92
2022/04/02 06:35:45;;;;;;;8.13;3.47;;;7.40;99.90;;;;;;6296642;22;20301;-90
2022/04/02 06:38:17;;;;;;;7.43;3.73;;;7.50;99.90;;;;;;6303311;22;20183;-90
2022/04/02 06:40:50;;;;;;;5.57;3.40;;;7.50;99.90;;;;;;6297497;22;20197;-90
2022/04/02 06:43:22;;;;;;;6.17;3.30;;;7.40;99.90;;;;;;6288544;22;20458;-89
2022/04/02 06:45:53;;;;;;;6.50;4.00;;;7.50;99.90;;;;;;6287604;22;20633;-90
2022/04/02 06:48:24;;;;;;;9.13;3.90;;;7.40;99.90;;;;;;6287854;22;20201;-89
2022/04/02 06:50:58;;;;;;;6.53;3.03;;;7.50;99.90;;;;;;6286317;22;20185;-90
2022/04/02 06:53:29;;;;;;;3.10;2.23;;;7.40;99.90;;;;;;6283881;22;20219;-91
2022/04/02 06:56:00;;;;;;;3.37;2.17;;;7.50;99.90;;;;;;6283070;22;20177;-91
2022/04/02 06:58:34;;;;;;;4.17;2.20;;;7.50;99.90;;;;;;6285541;22;20330;-91
2022/04/02 07:01:06;;;;;;;4.33;2.30;;;7.40;99.90;;;;;;6283894;22;20636;-91
2022/04/02 07:03:37;;;;;;;3.73;2.00;;;7.50;99.90;;;;;;6282650;22;20175;-89
2022/04/02 07:06:12;;;;;;;5.83;1.83;;;7.40;99.90;;;;;;6285945;22;20256;-91
2022/04/02 07:08:43;;;;;;;6.20;1.77;;;7.40;99.90;;;;;;6312865;22;20192;-90
2022/04/02 07:11:14;;;;;;;3.50;1.70;;;7.40;99.90;;;;;;6314140;22;20175;-90
2022/04/02 07:13:45;;;;;;;5.63;2.13;;;7.40;99.90;;;;;;6314065;22;20172;-90
2022/04/02 07:16:19;;;;;;;8.00;1.80;;;7.40;99.90;;;;;;6316854;22;20618;-90
2022/04/02 07:18:52;;;;;;;5.10;1.60;;;7.40;99.90;;;;;;6333806;22;20213;-91
2022/04/02 07:21:28;;;;;;;3.60;1.40;;;7.50;99.90;;;;;;6306457;22;20234;-91
2022/04/02 07:24:01;;;;;;;1.80;1.27;;;7.40;99.90;;;;;;6323324;22;20170;-90
2022/04/02 07:26:33;;;;;;;6.03;1.63;;;7.40;99.90;;;;;;6294528;22;20181;-91
2022/04/02 07:29:12;;;;;;;3.83;1.57;;;7.40;99.90;;;;;;6322649;22;20212;-90
2022/04/02 07:31:44;;;;;;;6.63;1.80;;;7.40;99.90;;;;;;6322227;22;20204;-90
2022/04/02 07:34:23;;;;;;;2.23;1.40;;;7.40;99.90;;;;;;6316927;22;20227;-89
2022/04/02 07:37:20;;;;;;;3.03;1.40;;;7.40;99.90;;;;;;6302621;22;20201;-90
2022/04/02 07:39:56;;;;;;;3.43;1.50;;;7.40;99.90;;;;;;6313641;22;20568;-91
2022/04/02 07:42:33;;;;;;;3.07;1.30;;;7.40;99.90;;;;;;6312659;22;20238;-89
2022/04/02 07:45:08;;;;;;;4.93;1.63;;;7.50;99.90;;;;;;6314543;22;20175;-89
2022/04/02 07:47:41;;;;;;;3.03;1.13;;;7.50;99.90;;;;;;6312089;22;20176;-90
2022/04/02 07:50:15;;;;;;;4.27;1.30;;;7.40;99.90;;;;;;6316777;22;20174;-90
2022/04/02 07:52:51;;;;;;;2.77;1.13;;;7.40;99.90;;;;;;6311857;22;20224;-90
2022/04/02 07:55:23;;;;;;;4.77;1.33;;;7.40;99.90;;;;;;6285637;22;20174;-90
2022/04/02 07:57:56;;;;;;;4.37;1.30;;;7.30;99.90;;;;;;6316435;22;20181;-89
2022/04/02 08:00:29;;;;;;;8.00;1.60;;;7.30;99.90;;;;;;6312235;22;20201;-90
2022/04/02 08:03:01;;;;;;;4.80;1.27;;;7.20;99.90;;;;;;6312726;22;20194;-90
2022/04/02 08:05:33;;;;;;;7.37;1.63;;;7.20;99.90;;;;;;6319162;22;20185;-88
2022/04/02 08:08:09;;;;;;;3.83;1.17;;;7.20;99.90;;;;;;6285781;22;20197;-90
2022/04/02 08:10:56;;;;;;;3.53;0.97;;;7.10;99.90;;;;;;6315405;22;20170;-90
2022/04/02 08:13:29;;;;;;;4.53;1.97;;;7.10;99.90;;;;;;6313665;22;20167;-91
2022/04/02 08:16:02;;;;;;;5.60;1.47;;;7.10;99.90;;;;;;6322543;22;20167;-90
2022/04/02 08:18:34;;;;;;;5.70;1.20;;;7.00;99.90;;;;;;6316953;22;20184;-90
2022/04/02 08:21:06;;;;;;;6.20;2.00;;;7.00;99.90;;;;;;6312801;22;20174;-89
2022/04/02 08:23:40;;;;;;;6.97;1.50;;;7.00;99.90;;;;;;6312599;22;20243;-91
2022/04/02 08:26:30;;;;;;;10.20;2.03;;;6.90;99.90;;;;;;6312172;22;20192;-91
2022/04/02 08:29:21;;;;;;;7.90;1.93;;;6.90;99.90;;;;;;6304718;22;20214;-91
2022/04/02 08:32:01;;;;;;;6.97;1.40;;;6.90;99.90;;;;;;6312047;22;20175;-90
2022/04/02 08:34:47;;;;;;;7.33;2.00;;;6.90;99.90;;;;;;6312542;22;20174;-90
2022/04/02 08:37:26;;;;;;;7.43;1.83;;;7.00;99.90;;;;;;6284253;22;20176;-90
2022/04/02 08:40:11;;;;;;;8.47;1.60;;;7.00;99.90;;;;;;6312460;22;20236;-90
2022/04/02 08:43:16;;;;;;;11.10;2.37;;;7.10;99.90;;;;;;6313112;22;20186;-91
2022/04/02 08:46:00;;;;;;;5.03;1.50;;;7.10;99.90;;;;;;6313287;22;20197;-89
2022/04/02 08:48:37;;;;;;;8.70;1.20;;;7.20;99.90;;;;;;6310872;22;20566;-89
2022/04/02 08:51:23;;;;;;;3.60;1.10;;;7.10;99.90;;;;;;6320706;22;20479;-91
2022/04/02 08:54:04;;;;;;;2.17;1.23;;;7.00;99.90;;;;;;6326659;22;20486;-90
2022/04/02 08:56:46;;;;;;;6.90;1.47;;;6.90;99.90;;;;;;6322780;22;20709;-91
2022/04/02 08:59:35;;;;;;;4.33;1.30;;;6.90;99.90;;;;;;6312869;22;20225;-91
2022/04/02 09:02:43;;;;;;;3.73;1.20;;;6.80;99.90;;;;;;6313664;22;20181;-91
2022/04/02 09:05:24;;;;;;;2.47;1.27;;;6.90;99.90;;;;;;6312849;22;20182;-90
2022/04/02 09:08:40;;;;;;;3.40;1.33;;;6.90;99.90;;;;;;6285754;22;20182;-90
2022/04/02 09:11:41;;;;;;;5.07;1.30;;;6.90;99.90;;;;;;6311817;22;20178;-89
2022/04/02 09:14:39;;;;;;;5.97;1.20;;;6.90;99.90;;;;;;6312379;22;20171;-90
2022/04/02 09:17:37;;;;;;;3.47;1.17;;;6.90;99.90;;;;;;6312270;22;20174;-89
2022/04/02 09:20:31;;;;;;;2.83;1.20;;;6.80;99.90;;;;;;6311737;22;20485;-89
2022/04/02 09:23:10;;;;;;;4.23;1.40;;;6.70;99.90;;;;;;6289536;22;20174;-88
2022/04/02 09:26:23;;;;;;;11.07;1.60;;;6.70;99.90;;;;;;6312236;22;20174;-90
2022/04/02 09:29:27;;;;;;;3.03;1.00;;;6.80;99.90;;;;;;6317316;22;20186;-90
2022/04/02 09:32:39;;;;;;;4.90;1.57;;;6.60;99.90;;;;;;6326788;22;20260;-91
2022/04/02 09:35:43;;;;;;;10.00;1.63;;;6.50;99.90;;;;;;6330688;22;20162;-90
2022/04/02 09:38:47;;;;;;;6.60;1.57;;;6.50;99.90;;;;;;6333580;22;20177;-90
2022/04/02 09:41:37;;;;;;;3.93;1.40;;;6.50;99.90;;;;;;6281456;22;20194;-91
2022/04/02 09:44:23;;;;;;;5.73;1.50;;;6.40;99.90;;;;;;6327567;22;20601;-91
2022/04/02 09:47:21;;;;;;;7.17;1.80;;;6.40;99.90;;;;;;6328384;22;20177;-90
2022/04/02 09:50:09;;;;;;;10.13;1.60;;;6.50;99.90;;;;;;6331263;22;20181;-91
2022/04/02 09:52:47;;;;;;;8.73;2.10;;;6.40;99.90;;;;;;6333992;22;20159;-90
2022/04/02 09:55:22;;;;;;;9.10;2.63;;;6.40;99.90;;;;;;6332983;22;20196;-89
2022/04/02 09:58:16;;;;;;;12.13;2.10;;;6.50;99.90;;;;;;6330654;22;20173;-92
2022/04/02 10:00:59;;;;;;;11.17;2.03;;;6.50;99.90;;;;;;6304147;22;20186;-90
2022/04/02 10:03:53;;;;;;;7.27;2.23;;;6.50;99.90;;;;;;6331830;22;20202;-89
2022/04/02 10:06:27;;;;;;;5.00;1.80;;;6.40;99.90;;;;;;6328222;22;20170;-90
2022/04/02 10:09:10;;;;;;;8.93;2.13;;;6.40;99.90;;;;;;6328414;22;20204;-90
2022/04/02 10:11:49;;;;;;;10.20;2.50;;;6.40;99.90;;;;;;6329150;22;20170;-90
2022/04/02 10:14:24;;;;;;;8.20;2.30;;;6.30;99.90;;;;;;6330986;22;20181;-90
2022/04/02 10:16:57;;;;;;;9.43;2.50;;;6.30;99.90;;;;;;6328792;22;20193;-90
2022/04/02 10:19:32;;;;;;;7.10;2.20;;;6.20;99.90;;;;;;6327471;22;20167;-90
2022/04/02 10:22:05;;;;;;;8.50;2.10;;;6.20;99.90;;;;;;6328636;22;20163;-89
2022/04/02 10:24:41;;;;;;;10.87;2.30;;;6.30;99.90;;;;;;6322827;22;20179;-89
2022/04/02 10:27:14;;;;;;;7.10;2.30;;;6.30;99.90;;;;;;6290826;22;20225;-89
2022/04/02 10:30:05;;;;;;;13.77;2.60;;;6.30;99.90;;;;;;6317964;22;20625;-90
2022/04/02 10:32:49;;;;;;;11.47;2.00;;;6.30;99.90;;;;;;6315821;22;20209;-90
2022/04/02 10:35:24;;;;;;;17.13;2.50;;;6.30;99.90;;;;;;6289181;22;20169;-89
2022/04/02 10:38:08;;;;;;;10.97;2.53;;;6.40;99.90;;;;;;6312121;22;20173;-89
2022/04/02 10:40:50;;;;;;;7.73;1.87;;;6.40;99.90;;;;;;6314915;22;20198;-89
2022/04/02 10:43:26;;;;;;;8.77;2.00;;;6.40;99.90;;;;;;6317534;22;20194;-90
2022/04/02 10:45:58;;;;;;;13.23;2.20;;;6.40;99.90;;;;;;6315425;22;20193;-90
2022/04/02 10:48:44;;;;;;;11.43;2.53;;;6.40;99.90;;;;;;6314490;22;20549;-90
2022/04/02 10:51:20;;;;;;;9.13;2.83;;;6.30;99.90;;;;;;6314753;22;20267;-90
2022/04/02 10:53:59;;;;;;;10.83;2.30;;;6.40;99.90;;;;;;6315410;22;20515;-90
2022/04/02 10:56:36;;;;;;;10.00;2.27;;;6.30;99.90;;;;;;6314749;22;20533;-90
2022/04/02 10:59:11;;;;;;;9.13;2.50;;;6.30;99.90;;;;;;6314914;22;20182;-90
2022/04/02 11:01:43;;;;;;;11.80;2.50;;;6.20;99.90;;;;;;6316451;22;20189;-90
2022/04/02 11:04:30;;;;;;;10.23;2.10;;;6.10;99.90;;;;;;6314203;22;20178;-89
2022/04/02 11:07:03;;;;;;;9.00;2.50;;;6.10;99.90;;;;;;6287658;22;20262;-89
2022/04/02 11:09:36;;;;;;;12.20;2.50;;;6.10;99.90;;;;;;6314231;22;20174;-90
2022/04/02 11:12:09;;;;;;;7.53;2.47;;;6.00;99.90;;;;;;6315303;22;20585;-92
2022/04/02 11:14:42;;;;;;;9.23;2.70;;;6.00;99.90;;;;;;6314804;22;20173;-90
2022/04/02 11:17:31;;;;;;;16.13;3.47;;;6.00;99.90;;;;;;6313411;22;20265;-91
2022/04/02 11:20:14;;;;;;;12.67;2.30;;;5.90;99.90;;;;;;6314661;22;20507;-91
2022/04/02 11:23:14;;;;;;;14.07;2.30;;;5.90;99.90;;;;;;6314230;22;20223;-90
2022/04/02 11:25:51;;;;;;;8.17;2.30;;;5.90;99.90;;;;;;6314557;22;20268;-90
2022/04/02 11:28:23;;;;;;;8.53;2.30;;;5.90;99.90;;;;;;6313665;22;20174;-90
2022/04/02 11:31:03;;;;;;;7.80;2.57;;;5.90;99.90;;;;;;6287844;22;20174;-90
2022/04/02 11:33:48;;;;;;;9.03;2.93;;;5.90;99.90;;;;;;6314965;22;20230;-91
2022/04/02 11:36:23;;;;;;;8.90;3.20;;;5.90;99.90;;;;;;6318308;22;20167;-90
2022/04/02 11:39:03;;;;;;;8.33;2.50;;;5.90;99.90;;;;;;6334242;22;20173;-90
2022/04/02 11:41:37;;;;;;;9.57;3.40;;;5.90;99.90;;;;;;6335034;22;20217;-90
2022/04/02 11:44:11;;;;;;;12.10;2.57;;;5.90;99.90;;;;;;6334899;22;20181;-91
2022/04/02 11:46:55;;;;;;;8.70;2.57;;;5.90;99.90;;;;;;6334769;22;20157;-91
2022/04/02 11:49:28;;;;;;;9.60;2.50;;;5.90;99.90;;;;;;6328755;22;20205;-90
2022/04/02 11:52:04;;;;;;;7.60;2.40;;;6.00;99.90;;;;;;6319213;22;20203;-88
2022/04/02 11:54:44;;;;;;;12.57;3.00;;;6.00;99.90;;;;;;6315674;22;20194;-89
2022/04/02 11:57:17;;;;;;;9.17;2.67;;;6.00;99.90;;;;;;6315956;22;20178;-89
2022/04/02 11:59:53;;;;;;;11.40;2.73;;;6.10;99.90;;;;;;6316211;22;20501;-90
2022/04/02 12:02:37;;;;;;;9.30;2.30;;;6.10;99.90;;;;;;6290849;22;20225;-90
2022/04/02 12:05:10;;;;;;;7.50;2.40;;;6.20;99.90;;;;;;6313103;22;20185;-89
2022/04/02 12:07:43;;;;;;;10.37;3.00;;;6.20;99.90;;;;;;6314829;22;20205;-90
2022/04/02 12:10:46;;;;;;;11.50;2.40;;;6.20;99.90;;;;;;6294813;22;20746;-90
2022/04/02 12:13:18;;;;;;;8.63;2.20;;;6.30;99.90;;;;;;6323906;22;20186;-89
2022/04/02 12:16:04;;;;;;;7.03;2.23;;;6.30;99.90;;;;;;6324963;22;20175;-89
2022/04/02 12:18:53;;;;;;;10.73;2.47;;;6.30;99.90;;;;;;6322984;22;20186;-90
2022/04/02 12:21:34;;;;;;;6.57;2.30;;;6.40;99.90;;;;;;6312080;22;20202;-90
2022/04/02 12:24:07;;;;;;;15.67;2.40;;;6.40;99.90;;;;;;6313936;22;20208;-90
2022/04/02 12:26:40;;;;;;;5.97;2.00;;;6.40;99.90;;;;;;6313265;22;20182;-90
2022/04/02 12:29:20;;;;;;;8.70;1.97;;;6.40;99.90;;;;;;6312659;22;20186;-90
2022/04/02 12:31:52;;;;;;;8.40;2.00;;;6.40;99.90;;;;;;6314775;22;20197;-90
2022/04/02 12:34:26;;;;;;;4.73;2.20;;;6.40;99.90;;;;;;6313398;22;20171;-90
2022/04/02 12:37:03;;;;;;;9.13;2.40;;;6.40;99.90;;;;;;6313014;22;20175;-90
2022/04/02 12:39:35;;;;;;;10.53;2.30;;;6.40;99.90;;;;;;6313077;22;20228;-90
2022/04/02 12:42:09;;;;;;;13.90;2.37;;;6.50;99.90;;;;;;6312192;22;20285;-90
2022/04/02 12:44:40;;;;;;;10.53;2.33;;;6.50;99.90;;;;;;6285645;22;20226;-90
2022/04/02 12:47:14;;;;;;;9.23;2.60;;;6.50;99.90;;;;;;6315862;22;20169;-91
2022/04/02 12:49:45;;;;;;;8.03;2.03;;;6.50;99.90;;;;;;6312395;22;20169;-89
2022/04/02 12:52:20;;;;;;;8.33;1.90;;;6.50;99.90;;;;;;6311200;22;20175;-89
2022/04/02 12:54:55;;;;;;;9.20;2.17;;;6.50;99.90;;;;;;6322327;22;20162;-89
2022/04/02 12:57:31;;;;;;;6.23;2.10;;;6.50;99.90;;;;;;6285952;22;20845;-90
2022/04/02 13:00:03;;;;;;;6.50;2.43;;;6.50;99.90;;;;;;6295957;22;20173;-89
2022/04/02 13:02:42;;;;;;;9.07;2.13;;;6.50;99.90;;;;;;6332085;22;20211;-89
2022/04/02 13:05:20;;;;;;;7.47;2.20;;;6.50;99.90;;;;;;6333109;22;20196;-89
2022/04/02 13:08:06;;;;;;;14.90;2.90;;;6.50;99.90;;;;;;6324248;22;20216;-89
2022/04/02 13:10:45;;;;;;;9.67;2.40;;;6.50;99.90;;;;;;6321136;22;20601;-89
2022/04/02 13:13:19;;;;;;;4.03;1.93;;;6.50;99.90;;;;;;6319440;22;20201;-90
2022/04/02 13:15:53;;;;;;;11.33;2.30;;;6.50;99.90;;;;;;6317253;22;20177;-89
2022/04/02 13:21:17;;;;;;;11.30;2.33;;;6.50;99.90;;;;;;6316464;22;20198;-89
2022/04/02 13:24:26;;;;;;;6.73;2.47;;;6.50;99.90;;;;;;6313076;22;20185;-89
2022/04/02 13:27:24;;;;;;;8.53;2.40;;;6.50;99.90;;;;;;6316791;22;20166;-89
2022/04/02 13:30:07;;;;;;;9.07;2.90;;;6.50;99.90;;;;;;6319465;22;20569;-89
2022/04/02 13:33:07;;;;;;;8.80;2.60;;;6.60;99.90;;;;;;6316098;22;20174;-89
2022/04/02 13:35:41;;;;;;;6.30;2.43;;;6.60;99.90;;;;;;6314430;22;20501;-89
2022/04/02 13:38:36;;;;;;;6.87;2.70;;;6.60;99.90;;;;;;6312943;22;20206;-88
2022/04/02 13:41:13;;;;;;;5.83;2.17;;;6.60;99.90;;;;;;6313652;22;20543;-88
2022/04/02 13:43:54;;;;;;;8.90;2.80;;;6.50;99.90;;;;;;6312761;22;20562;-90
2022/04/02 13:46:29;;;;;;;12.60;2.33;;;6.50;99.90;;;;;;6312335;22;20588;-90
2022/04/02 13:49:07;;;;;;;7.30;2.50;;;6.50;99.90;;;;;;6310752;22;20172;-91
2022/04/02 13:51:56;;;;;;;8.53;2.73;;;6.50;99.90;;;;;;6313254;22;20186;-90
2022/04/02 13:54:31;;;;;;;12.47;3.07;;;6.40;99.90;;;;;;6326882;22;20175;-94
2022/04/02 13:57:06;;;;;;;5.53;2.67;;;6.40;99.90;;;;;;6330224;22;20176;-90
2022/04/02 13:59:53;;;;;;;7.87;2.17;;;6.40;99.90;;;;;;6325791;22;20170;-90
2022/04/02 14:02:30;;;;;;;7.07;2.20;;;6.40;99.90;;;;;;6315307;22;20194;-89
2022/04/02 14:05:04;;;;;;;9.73;2.20;;;6.30;99.90;;;;;;6321344;22;20175;-90
2022/04/02 14:07:37;;;;;;;4.20;2.00;;;6.40;99.90;;;;;;6314125;22;20190;-90
2022/04/02 14:10:12;;;;;;;8.90;2.50;;;6.40;99.90;;;;;;6314854;22;20170;-90
2022/04/02 14:12:52;;;;;;;8.93;2.70;;;6.40;99.90;;;;;;6311860;22;20551;-89
2022/04/02 14:15:25;;;;;;;8.00;2.40;;;6.40;99.90;;;;;;6317472;22;20491;-91
2022/04/02 14:18:05;;;;;;;6.20;2.37;;;6.40;99.90;;;;;;6313654;22;20178;-89
2022/04/02 14:20:36;;;;;;;5.10;2.10;;;6.40;99.90;;;;;;6315817;22;20181;-90
2022/04/02 14:23:15;;;;;;;6.30;2.10;;;6.50;99.90;;;;;;6312931;22;20285;-90
2022/04/02 14:26:43;;;;;;;3.77;2.07;;;6.50;99.90;;;;;;6313185;22;20212;-89
2022/04/02 14:29:45;;;;;;;4.87;1.93;;;6.50;99.90;;;;;;6285846;22;20174;-90
2022/04/02 14:33:07;;;;;;;2.97;1.57;;;6.60;99.90;;;;;;6312721;22;20192;-90
2022/04/02 14:36:12;;;;;;;5.13;2.03;;;6.50;99.90;;;;;;6320047;22;20190;-90
2022/04/02 14:39:23;;;;;;;5.60;2.30;;;6.50;99.90;;;;;;6311918;22;20181;-90